createdAt,value
2019-02-22T00:02:31.375Z,10.60
2019-02-22T00:04:59.391Z,10.80
2019-02-22T00:07:27.372Z,10.90
2019-02-22T00:09:55.566Z,10.90
2019-02-22T00:12:23.978Z,10.80
2019-02-22T00:14:52.014Z,10.70
2019-02-22T00:17:20.706Z,10.70
2019-02-22T00:19:48.814Z,10.90
2019-02-22T00:22:16.738Z,10.80
2019-02-22T00:24:44.656Z,10.80
2019-02-22T00:27:13.079Z,10.80
2019-02-22T00:29:41.071Z,10.90
2019-02-22T00:32:09.174Z,10.80
2019-02-22T00:34:37.245Z,10.60
2019-02-22T00:37:05.485Z,10.70
2019-02-22T00:39:33.442Z,10.80
2019-02-22T00:42:01.612Z,10.90
2019-02-22T00:44:29.506Z,10.80
2019-02-22T00:46:57.433Z,10.70
2019-02-22T00:49:25.325Z,10.70
2019-02-22T00:51:53.206Z,10.60
2019-02-22T00:54:21.117Z,10.50
2019-02-22T00:56:49.014Z,10.40
2019-02-22T00:59:17.218Z,10.50
2019-02-22T01:01:45.670Z,10.70
2019-02-22T01:04:13.984Z,10.90
2019-02-22T01:06:41.958Z,10.80
2019-02-22T01:09:10.319Z,10.70
2019-02-22T01:11:38.786Z,10.80
2019-02-22T01:14:06.654Z,10.80
2019-02-22T01:16:34.753Z,10.70
2019-02-22T01:19:02.704Z,10.70
2019-02-22T01:21:30.756Z,10.70
2019-02-22T01:23:58.689Z,10.70
2019-02-22T01:26:26.581Z,10.60
2019-02-22T01:28:54.447Z,10.50
2019-02-22T01:31:22.623Z,10.40
2019-02-22T01:33:50.780Z,10.50
2019-02-22T01:36:18.753Z,10.50
2019-02-22T01:38:47.344Z,10.70
2019-02-22T01:41:15.597Z,10.70
2019-02-22T01:43:43.528Z,10.80
2019-02-22T01:46:13.134Z,10.80
2019-02-22T01:48:41.377Z,10.70
2019-02-22T01:51:09.241Z,10.50
2019-02-22T01:53:37.207Z,10.40
2019-02-22T01:56:05.140Z,10.30
2019-02-22T01:58:33.098Z,10.30
2019-02-22T02:01:01.276Z,10.60
2019-02-22T02:03:29.176Z,10.60
2019-02-22T02:05:57.645Z,10.50
2019-02-22T02:08:25.664Z,10.40
2019-02-22T02:10:54.374Z,10.30
2019-02-22T02:13:22.596Z,10.30
2019-02-22T02:15:50.460Z,10.40
2019-02-22T02:18:18.638Z,10.60
2019-02-22T02:20:46.669Z,10.70
2019-02-22T02:23:14.505Z,10.60
2019-02-22T02:25:42.370Z,10.60
2019-02-22T02:28:10.923Z,10.60
2019-02-22T02:30:39.090Z,10.50
2019-02-22T02:33:07.037Z,10.60
2019-02-22T02:35:34.984Z,10.60
2019-02-22T02:38:03.224Z,10.50
2019-02-22T02:40:31.282Z,10.40
2019-02-22T02:42:59.254Z,10.60
2019-02-22T02:45:27.247Z,10.70
2019-02-22T02:47:55.159Z,10.70
2019-02-22T02:50:23.107Z,10.60
2019-02-22T02:52:51.166Z,10.60
2019-02-22T02:55:27.888Z,10.40
2019-02-22T02:57:55.793Z,10.40
2019-02-22T03:00:23.892Z,10.50
2019-02-22T03:02:51.791Z,10.70
2019-02-22T03:05:21.898Z,10.60
2019-02-22T03:07:50.559Z,10.40
2019-02-22T03:10:18.477Z,10.20
2019-02-22T03:12:46.960Z,10.30
2019-02-22T03:15:16.356Z,10.50
2019-02-22T03:17:44.193Z,10.40
2019-02-22T03:20:12.366Z,10.40
2019-02-22T03:22:40.339Z,10.50
2019-02-22T03:25:08.417Z,10.40
2019-02-22T03:27:41.563Z,10.40
2019-02-22T03:30:09.874Z,10.30
2019-02-22T03:32:37.752Z,10.20
2019-02-22T03:35:05.703Z,10.50
2019-02-22T03:37:34.113Z,10.40
2019-02-22T03:40:04.103Z,10.30
2019-02-22T03:42:32.441Z,10.50
2019-02-22T03:45:00.442Z,10.60
2019-02-22T03:47:28.413Z,10.60
2019-02-22T03:49:56.388Z,10.70
2019-02-22T03:52:37.197Z,10.70
2019-02-22T03:55:05.855Z,10.50
2019-02-22T03:57:33.805Z,10.70
2019-02-22T04:00:01.934Z,10.60
2019-02-22T04:02:29.749Z,10.50
2019-02-22T04:04:57.823Z,10.40
2019-02-22T04:07:26.542Z,10.60
2019-02-22T04:09:54.537Z,10.60
2019-02-22T04:12:22.440Z,10.70
2019-02-22T04:14:50.531Z,10.70
2019-02-22T04:17:18.403Z,10.80
2019-02-22T04:19:46.637Z,10.90
2019-02-22T04:22:14.570Z,10.90
2019-02-22T04:24:42.462Z,10.90
2019-02-22T04:27:10.446Z,10.90
2019-02-22T04:29:39.064Z,10.90
2019-02-22T04:32:07.078Z,10.90
2019-02-22T04:34:34.993Z,10.90
2019-02-22T04:37:03.321Z,10.70
2019-02-22T04:39:31.422Z,10.80
2019-02-22T04:41:59.832Z,10.90
2019-02-22T04:44:27.884Z,11.00
2019-02-22T04:46:55.830Z,11.00
2019-02-22T04:49:23.701Z,10.90
2019-02-22T04:51:51.746Z,11.00
2019-02-22T04:54:19.822Z,11.00
2019-02-22T04:56:47.790Z,10.90
2019-02-22T04:59:15.890Z,10.80
2019-02-22T05:01:43.842Z,10.80
2019-02-22T05:04:11.710Z,10.70
2019-02-22T05:06:39.640Z,10.90
2019-02-22T05:09:08.310Z,11.00
2019-02-22T05:11:36.358Z,11.10
2019-02-22T05:14:04.459Z,11.10
2019-02-22T05:16:34.570Z,11.00
2019-02-22T05:19:02.505Z,11.00
2019-02-22T05:21:30.726Z,11.00
2019-02-22T05:23:59.100Z,11.00
2019-02-22T05:26:27.224Z,11.10
2019-02-22T05:28:55.504Z,11.10
2019-02-22T05:31:23.418Z,10.90
2019-02-22T05:33:51.409Z,11.00
2019-02-22T05:36:19.427Z,11.00
2019-02-22T05:38:47.369Z,11.10
2019-02-22T05:41:15.305Z,11.10
2019-02-22T05:43:43.338Z,11.00
2019-02-22T05:46:11.956Z,11.00
2019-02-22T05:48:39.931Z,10.90
2019-02-22T05:51:07.853Z,11.00
2019-02-22T05:53:35.990Z,11.00
2019-02-22T05:56:03.897Z,11.00
2019-02-22T05:58:32.281Z,10.90
2019-02-22T06:01:00.373Z,10.90
2019-02-22T06:03:28.320Z,10.90
2019-02-22T06:05:56.551Z,10.90
2019-02-22T06:08:24.693Z,10.90
2019-02-22T06:10:53.256Z,10.90
2019-02-22T06:13:21.366Z,10.90
2019-02-22T06:15:49.418Z,10.90
2019-02-22T06:18:17.369Z,10.90
2019-02-22T06:20:45.552Z,10.80
2019-02-22T06:23:13.538Z,10.80
2019-02-22T06:25:41.507Z,10.80
2019-02-22T06:28:09.946Z,10.80
2019-02-22T06:30:38.008Z,10.80
2019-02-22T06:33:06.295Z,10.90
2019-02-22T06:35:34.568Z,10.90
2019-02-22T06:38:03.164Z,10.90
2019-02-22T06:40:31.047Z,10.90
2019-02-22T06:42:59.254Z,11.00
2019-02-22T06:45:27.518Z,11.00
2019-02-22T06:47:55.644Z,11.00
2019-02-22T06:50:33.344Z,10.90
2019-02-22T06:52:53.762Z,10.90
2019-02-22T06:55:21.747Z,11.00
2019-02-22T06:57:49.852Z,10.90
2019-02-22T07:00:18.048Z,10.90
2019-02-22T07:02:46.145Z,10.90
2019-02-22T07:05:14.526Z,10.80
2019-02-22T07:07:42.821Z,10.90
2019-02-22T07:10:10.922Z,10.90
2019-02-22T07:12:44.866Z,11.00
2019-02-22T07:15:12.819Z,11.20
2019-02-22T07:17:41.212Z,11.20
2019-02-22T07:20:10.388Z,11.10
2019-02-22T07:22:38.356Z,11.00
2019-02-22T07:25:08.681Z,11.10
2019-02-22T07:27:36.791Z,11.10
2019-02-22T07:30:05.297Z,10.90
2019-02-22T07:32:33.422Z,10.80
2019-02-22T07:35:01.711Z,10.80
2019-02-22T07:37:29.682Z,11.00
2019-02-22T07:39:57.720Z,11.10
2019-02-22T07:42:25.605Z,11.00
2019-02-22T07:44:53.575Z,11.20
2019-02-22T07:47:21.470Z,11.20
2019-02-22T07:49:49.544Z,11.30
2019-02-22T07:52:17.497Z,11.40
2019-02-22T07:54:45.595Z,11.40
2019-02-22T07:57:13.470Z,11.50
2019-02-22T07:59:41.739Z,11.50
2019-02-22T08:02:09.793Z,11.50
2019-02-22T08:04:38.029Z,11.40
2019-02-22T08:07:06.120Z,11.30
2019-02-22T08:09:34.231Z,11.30
2019-02-22T08:12:02.273Z,11.40
2019-02-22T08:14:30.317Z,11.60
2019-02-22T08:16:58.310Z,11.60
2019-02-22T08:19:26.555Z,11.80
2019-02-22T08:21:54.686Z,11.90
2019-02-22T08:24:22.614Z,11.90
2019-02-22T08:26:50.710Z,12.00
2019-02-22T08:29:18.929Z,12.30
2019-02-22T08:31:46.803Z,12.70
2019-02-22T08:34:14.908Z,13.10
2019-02-22T08:36:42.835Z,13.10
2019-02-22T08:39:10.841Z,13.10
2019-02-22T08:41:39.135Z,12.90
2019-02-22T08:44:07.269Z,13.00
2019-02-22T08:46:35.277Z,13.00
2019-02-22T08:49:03.567Z,13.20
2019-02-22T08:51:31.727Z,13.40
2019-02-22T08:54:00.028Z,13.50
2019-02-22T08:56:28.246Z,13.50
2019-02-22T08:58:56.737Z,13.50
2019-02-22T09:01:24.710Z,13.60
2019-02-22T09:03:52.871Z,13.70
2019-02-22T09:06:20.934Z,13.60
2019-02-22T09:08:49.062Z,13.70
2019-02-22T09:11:17.086Z,13.40
2019-02-22T09:13:45.292Z,12.90
2019-02-22T09:16:13.250Z,12.90
2019-02-22T09:18:41.452Z,13.10
2019-02-22T09:21:09.767Z,13.20
2019-02-22T09:23:38.050Z,13.10
2019-02-22T09:26:06.090Z,13.00
2019-02-22T09:28:34.699Z,13.10
2019-02-22T09:31:02.636Z,13.10
2019-02-22T09:33:30.855Z,13.10
2019-02-22T09:35:58.787Z,12.50
2019-02-22T09:38:26.785Z,12.30
2019-02-22T09:40:54.780Z,12.40
2019-02-22T09:43:22.879Z,12.20
2019-02-22T09:45:51.343Z,12.40
2019-02-22T09:48:19.354Z,12.20
2019-02-22T09:50:47.457Z,12.40
2019-02-22T09:53:15.348Z,12.50
2019-02-22T09:55:43.713Z,12.20
2019-02-22T09:58:12.083Z,12.50
2019-02-22T10:00:40.182Z,12.50
2019-02-22T10:03:08.214Z,12.50
2019-02-22T10:05:36.236Z,12.70
2019-02-22T10:08:04.237Z,12.30
2019-02-22T10:10:32.538Z,12.20
2019-02-22T10:13:01.126Z,12.20
2019-02-22T10:15:29.073Z,12.20
2019-02-22T10:17:57.205Z,12.20
2019-02-22T10:20:25.340Z,12.20
2019-02-22T10:22:53.253Z,12.20
2019-02-22T10:25:21.490Z,12.40
2019-02-22T10:27:49.920Z,12.60
2019-02-22T10:30:17.999Z,13.10
2019-02-22T10:32:46.246Z,13.90
2019-02-22T10:35:14.309Z,13.60
2019-02-22T10:37:42.276Z,13.60
2019-02-22T10:40:10.510Z,13.80
2019-02-22T10:42:38.600Z,13.80
2019-02-22T10:45:07.430Z,13.10
2019-02-22T10:47:35.413Z,13.00
2019-02-22T10:50:03.323Z,12.90
2019-02-22T10:52:31.278Z,12.80
2019-02-22T10:54:59.643Z,12.80
2019-02-22T10:57:27.809Z,12.80
2019-02-22T10:59:55.809Z,12.90
2019-02-22T11:02:23.868Z,12.80
2019-02-22T11:04:53.182Z,13.00
2019-02-22T11:07:21.142Z,13.30
2019-02-22T11:09:49.256Z,13.30
2019-02-22T11:12:17.301Z,13.20
2019-02-22T11:14:45.299Z,13.10
2019-02-22T11:17:13.623Z,13.10
2019-02-22T11:19:41.582Z,13.20
2019-02-22T11:22:10.092Z,13.50
2019-02-22T11:24:38.077Z,14.10
2019-02-22T11:27:06.396Z,15.00
2019-02-22T11:29:34.557Z,15.70
2019-02-22T11:32:02.737Z,15.60
2019-02-22T11:34:30.892Z,15.00
2019-02-22T11:36:59.284Z,15.00
2019-02-22T11:39:27.204Z,14.10
2019-02-22T11:41:55.380Z,13.90
2019-02-22T11:44:23.505Z,13.90
2019-02-22T11:46:51.485Z,14.10
2019-02-22T11:49:20.040Z,14.40
2019-02-22T11:51:48.095Z,14.80
2019-02-22T11:54:16.562Z,15.40
2019-02-22T11:56:44.544Z,14.60
2019-02-22T11:59:12.810Z,14.70
2019-02-22T12:01:41.739Z,14.80
2019-02-22T12:04:10.148Z,15.00
2019-02-22T12:06:38.075Z,14.90
2019-02-22T12:09:06.465Z,14.80
2019-02-22T12:11:34.577Z,14.80
2019-02-22T12:14:02.541Z,14.60
2019-02-22T12:16:30.544Z,14.40
2019-02-22T12:18:58.474Z,14.50
2019-02-22T12:21:26.514Z,14.60
2019-02-22T12:23:54.453Z,14.80
2019-02-22T12:26:22.594Z,14.80
2019-02-22T12:28:51.068Z,14.50
2019-02-22T12:31:19.224Z,14.50
2019-02-22T12:33:47.259Z,14.50
2019-02-22T12:36:15.366Z,14.40
2019-02-22T12:38:43.638Z,14.20
2019-02-22T12:41:11.703Z,14.10
2019-02-22T12:43:39.703Z,13.70
2019-02-22T12:46:07.721Z,13.70
2019-02-22T12:48:35.690Z,13.90
2019-02-22T12:51:03.618Z,13.90
2019-02-22T12:53:31.605Z,14.20
2019-02-22T12:55:59.587Z,14.30
2019-02-22T12:58:27.519Z,14.20
2019-02-22T13:00:55.951Z,13.90
2019-02-22T13:03:24.247Z,14.00
2019-02-22T13:05:52.452Z,14.00
2019-02-22T13:08:20.469Z,14.20
2019-02-22T13:10:49.168Z,14.40
2019-02-22T13:13:17.216Z,14.00
2019-02-22T13:15:45.184Z,14.10
2019-02-22T13:18:13.116Z,14.20
2019-02-22T13:20:41.177Z,14.10
2019-02-22T13:23:09.298Z,14.10
2019-02-22T13:25:37.874Z,14.30
2019-02-22T13:28:06.174Z,14.20
2019-02-22T13:30:34.428Z,14.40
2019-02-22T13:33:03.642Z,14.20
2019-02-22T13:35:31.720Z,14.00
2019-02-22T13:37:59.916Z,14.20
2019-02-22T13:40:27.988Z,14.10
2019-02-22T13:42:55.966Z,14.20
2019-02-22T13:45:26.864Z,14.30
2019-02-22T13:47:54.439Z,14.60
2019-02-22T13:50:22.702Z,14.80
2019-02-22T13:52:50.747Z,15.00
2019-02-22T13:55:19.129Z,14.20
2019-02-22T13:57:47.346Z,14.10
2019-02-22T14:00:16.874Z,14.20
2019-02-22T14:02:45.543Z,14.10
2019-02-22T14:05:13.504Z,13.90
2019-02-22T14:07:50.056Z,13.90
2019-02-22T14:10:19.273Z,14.00
2019-02-22T14:12:47.498Z,14.00
2019-02-22T14:15:18.594Z,13.90
2019-02-22T14:17:46.270Z,14.00
2019-02-22T14:20:14.391Z,14.20
2019-02-22T14:22:42.623Z,14.40
2019-02-22T14:25:11.085Z,14.50
2019-02-22T14:27:39.051Z,14.60
2019-02-22T14:30:09.569Z,14.40
2019-02-22T14:32:37.422Z,14.40
2019-02-22T14:35:06.048Z,14.10
2019-02-22T14:37:34.328Z,14.00
2019-02-22T14:40:03.804Z,14.00
2019-02-22T14:42:32.135Z,13.80
2019-02-22T14:45:01.488Z,13.90
2019-02-22T14:47:29.883Z,13.90
2019-02-22T14:49:58.286Z,13.90
2019-02-22T14:52:26.450Z,13.90
2019-02-22T14:54:54.695Z,13.80
2019-02-22T14:57:22.868Z,13.60
2019-02-22T14:59:50.913Z,13.50
2019-02-22T15:02:19.280Z,13.50
2019-02-22T15:04:47.520Z,13.50
2019-02-22T15:07:15.675Z,13.50
2019-02-22T15:09:43.593Z,13.40
2019-02-22T15:12:12.120Z,13.30
2019-02-22T15:14:40.261Z,13.40
2019-02-22T15:17:19.041Z,13.40
2019-02-22T15:19:47.264Z,13.50
2019-02-22T15:22:15.371Z,13.60
2019-02-22T15:24:43.424Z,14.00
2019-02-22T15:27:11.886Z,14.00
2019-02-22T15:29:40.022Z,14.00
2019-02-22T15:32:08.459Z,14.00
2019-02-22T15:34:36.847Z,13.90
2019-02-22T15:37:04.826Z,14.20
2019-02-22T15:39:33.580Z,14.30
2019-02-22T15:42:01.799Z,14.00
2019-02-22T15:44:29.815Z,13.90
2019-02-22T15:46:58.089Z,14.20
2019-02-22T15:49:26.592Z,14.10
2019-02-22T15:51:54.907Z,14.00
2019-02-22T15:54:23.014Z,13.60
2019-02-22T15:56:51.254Z,13.40
2019-02-22T15:59:21.042Z,13.30
2019-02-22T16:01:55.637Z,13.20
2019-02-22T16:04:48.165Z,13.20
2019-02-22T16:07:16.770Z,13.10
2019-02-22T16:09:45.086Z,13.10
2019-02-22T16:12:13.200Z,13.30
2019-02-22T16:14:41.478Z,13.20
2019-02-22T16:17:09.611Z,13.10
2019-02-22T16:19:37.714Z,13.10
2019-02-22T16:22:05.939Z,13.10
2019-02-22T16:24:33.823Z,13.10
2019-02-22T16:27:02.391Z,13.10
2019-02-22T16:29:31.911Z,13.10
2019-02-22T16:32:00.386Z,13.00
2019-02-22T16:34:28.607Z,12.90
2019-02-22T16:36:56.682Z,13.00
2019-02-22T16:39:24.714Z,13.10
2019-02-22T16:41:53.121Z,13.00
2019-02-22T16:44:21.086Z,12.90
2019-02-22T16:46:49.151Z,12.90
2019-02-22T16:49:17.160Z,12.80
2019-02-22T16:51:45.681Z,12.80
2019-02-22T16:54:13.765Z,12.70
2019-02-22T16:56:41.962Z,12.70
2019-02-22T16:59:10.228Z,12.60
2019-02-22T17:01:38.195Z,12.50
2019-02-22T17:04:06.308Z,12.40
2019-02-22T17:06:34.306Z,12.40
2019-02-22T17:09:04.143Z,12.30
2019-02-22T17:11:32.128Z,12.00
2019-02-22T17:13:59.982Z,11.90
2019-02-22T17:16:28.418Z,11.90
2019-02-22T17:18:56.616Z,12.00
2019-02-22T17:21:25.106Z,11.90
2019-02-22T17:23:53.168Z,11.80
2019-02-22T17:26:21.332Z,11.50
2019-02-22T17:28:49.356Z,11.30
2019-02-22T17:31:17.657Z,11.10
2019-02-22T17:33:45.889Z,11.00
2019-02-22T17:36:13.979Z,10.90
2019-02-22T17:38:42.464Z,10.80
2019-02-22T17:41:10.629Z,10.60
2019-02-22T17:43:39.367Z,10.50
2019-02-22T17:46:07.507Z,10.50
2019-02-22T17:48:35.922Z,10.50
2019-02-22T17:51:03.957Z,10.30
2019-02-22T17:53:32.082Z,10.20
2019-02-22T17:56:00.174Z,10.30
2019-02-22T17:58:28.676Z,10.30
2019-02-22T18:00:56.978Z,10.30
2019-02-22T18:03:25.055Z,10.20
2019-02-22T18:05:53.204Z,10.20
2019-02-22T18:08:21.311Z,10.30
2019-02-22T18:10:49.290Z,10.20
2019-02-22T18:13:17.229Z,10.10
2019-02-22T18:15:45.450Z,10.00
2019-02-22T18:18:13.434Z,9.90
2019-02-22T18:20:41.536Z,9.90
2019-02-22T18:23:10.136Z,10.00
2019-02-22T18:25:38.183Z,9.90
2019-02-22T18:28:06.241Z,9.70
2019-02-22T18:30:34.589Z,9.60
2019-02-22T18:33:02.612Z,9.50
2019-02-22T18:35:31.405Z,9.40
2019-02-22T18:37:59.524Z,9.40
2019-02-22T18:40:27.752Z,9.30
2019-02-22T18:42:55.739Z,9.20
2019-02-22T18:45:24.490Z,9.20
2019-02-22T18:47:52.827Z,9.20
2019-02-22T18:50:20.857Z,9.00
2019-02-22T18:52:48.747Z,9.00
2019-02-22T18:55:17.091Z,8.90
2019-02-22T18:57:45.169Z,8.90
2019-02-22T19:00:14.747Z,8.90
2019-02-22T19:02:42.870Z,8.90
2019-02-22T19:05:10.795Z,8.90
2019-02-22T19:07:38.824Z,8.80
2019-02-22T19:10:09.295Z,8.80
2019-02-22T19:12:39.084Z,8.90
2019-02-22T19:15:09.965Z,8.90
2019-02-22T19:17:38.701Z,8.90
2019-02-22T19:20:09.982Z,8.90
2019-02-22T19:22:38.126Z,9.00
2019-02-22T19:25:06.528Z,8.90
2019-02-22T19:27:36.463Z,8.80
2019-02-22T19:30:06.706Z,8.70
2019-02-22T19:32:34.822Z,8.80
2019-02-22T19:35:03.406Z,8.80
2019-02-22T19:37:31.521Z,8.70
2019-02-22T19:39:59.558Z,8.60
2019-02-22T19:42:27.693Z,8.60
2019-02-22T19:44:56.074Z,8.60
2019-02-22T19:47:24.185Z,8.60
2019-02-22T19:49:52.286Z,8.60
2019-02-22T19:52:20.269Z,8.40
2019-02-22T19:54:48.485Z,8.30
2019-02-22T19:57:16.521Z,8.40
2019-02-22T19:59:45.262Z,8.30
2019-02-22T20:02:13.482Z,8.30
2019-02-22T20:04:41.638Z,8.30
2019-02-22T20:07:09.652Z,8.30
2019-02-22T20:09:37.684Z,8.40
2019-02-22T20:12:05.651Z,8.40
2019-02-22T20:14:33.752Z,8.40
2019-02-22T20:17:02.305Z,8.30
2019-02-22T20:19:30.280Z,8.40
2019-02-22T20:21:58.338Z,8.30
2019-02-22T20:24:26.292Z,8.30
2019-02-22T20:26:54.388Z,8.20
2019-02-22T20:29:22.404Z,8.40
2019-02-22T20:31:50.758Z,8.60
2019-02-22T20:34:18.714Z,8.90
2019-02-22T20:36:46.684Z,9.20
2019-02-22T20:39:15.032Z,9.30
2019-02-22T20:41:43.025Z,9.20
2019-02-22T20:44:11.356Z,9.40
2019-02-22T20:46:39.446Z,9.60
2019-02-22T20:49:08.158Z,9.60
2019-02-22T20:51:36.170Z,9.70
2019-02-22T20:54:04.373Z,9.80
2019-02-22T20:56:38.196Z,9.70
2019-02-22T20:59:06.306Z,9.80
2019-02-22T21:01:34.393Z,9.70
2019-02-22T21:04:02.604Z,9.90
2019-02-22T21:06:31.032Z,9.80
2019-02-22T21:09:01.981Z,9.90
2019-02-22T21:11:30.185Z,9.80
2019-02-22T21:13:58.365Z,9.80
2019-02-22T21:16:26.731Z,9.70
2019-02-22T21:18:55.027Z,9.80
2019-02-22T21:21:23.165Z,9.80
2019-02-22T21:23:52.104Z,9.70
2019-02-22T21:26:20.301Z,9.70
2019-02-22T21:28:48.675Z,9.60
2019-02-22T21:31:16.773Z,9.60
2019-02-22T21:33:45.163Z,9.70
2019-02-22T21:36:13.696Z,9.50
2019-02-22T21:38:42.086Z,9.60
2019-02-22T21:41:10.129Z,9.50
2019-02-22T21:43:38.576Z,9.50
2019-02-22T21:46:06.616Z,9.50
2019-02-22T21:48:34.854Z,9.50
2019-02-22T21:51:02.948Z,9.40
2019-02-22T21:53:31.457Z,9.30
2019-02-22T21:55:59.515Z,9.30
2019-02-22T21:58:27.473Z,9.30
2019-02-22T22:00:56.280Z,9.20
2019-02-22T22:03:24.636Z,9.20
2019-02-22T22:05:52.731Z,9.10
2019-02-22T22:08:20.970Z,9.20
2019-02-22T22:10:48.959Z,9.10
2019-02-22T22:13:17.081Z,9.20
2019-02-22T22:15:45.098Z,9.20
2019-02-22T22:18:13.054Z,9.10
2019-02-22T22:20:40.977Z,9.10
2019-02-22T22:23:08.923Z,9.00
2019-02-22T22:25:36.981Z,9.00
2019-02-22T22:28:05.516Z,9.00
2019-02-22T22:30:33.717Z,9.00
2019-02-22T22:33:02.117Z,9.00
2019-02-22T22:35:30.301Z,8.90
2019-02-22T22:37:58.309Z,8.90
2019-02-22T22:40:26.265Z,8.80
2019-02-22T22:42:54.747Z,8.70
2019-02-22T22:45:23.434Z,8.70
2019-02-22T22:47:51.675Z,8.60
2019-02-22T22:50:19.636Z,8.60
2019-02-22T22:52:47.668Z,8.50
2019-02-22T22:55:16.036Z,8.50
2019-02-22T22:57:44.507Z,8.50
2019-02-22T23:00:27.248Z,8.60
2019-02-22T23:02:55.668Z,8.50
2019-02-22T23:05:24.427Z,8.50
2019-02-22T23:07:52.824Z,8.40
2019-02-22T23:10:20.829Z,8.40
2019-02-22T23:12:49.017Z,8.30
2019-02-22T23:15:17.036Z,8.20
2019-02-22T23:17:45.029Z,8.20
2019-02-22T23:20:13.168Z,8.20
2019-02-22T23:22:41.728Z,8.10
2019-02-22T23:25:10.440Z,8.00
2019-02-22T23:27:38.650Z,8.10
2019-02-22T23:30:06.868Z,8.00
2019-02-22T23:32:34.804Z,8.10
2019-02-22T23:35:02.769Z,8.00
2019-02-22T23:37:31.262Z,8.00
2019-02-22T23:40:07.507Z,7.90
2019-02-22T23:42:35.898Z,7.90
2019-02-22T23:45:04.672Z,7.90
2019-02-22T23:47:32.926Z,7.80
2019-02-22T23:50:01.985Z,7.70
2019-02-22T23:52:29.994Z,7.80
2019-02-22T23:54:58.049Z,7.70
2019-02-22T23:57:26.034Z,7.70
2019-02-22T23:59:54.380Z,7.70
